createdAt,value
2017-09-16T00:02:02.889Z,12.40
2017-09-16T00:04:31.037Z,12.40
2017-09-16T00:06:59.175Z,12.40
2017-09-16T00:09:28.110Z,12.40
2017-09-16T00:11:56.250Z,12.40
2017-09-16T00:14:24.426Z,12.40
2017-09-16T00:16:52.580Z,12.40
2017-09-16T00:19:21.614Z,12.40
2017-09-16T00:21:49.766Z,12.40
2017-09-16T00:24:17.897Z,12.40
2017-09-16T00:26:46.065Z,12.40
2017-09-16T00:29:14.195Z,12.40
2017-09-16T00:31:42.370Z,12.40
2017-09-16T00:34:10.526Z,12.50
2017-09-16T00:36:38.817Z,12.50
2017-09-16T00:39:06.975Z,12.40
2017-09-16T00:41:35.105Z,12.40
2017-09-16T00:44:03.280Z,12.50
2017-09-16T00:46:31.421Z,12.50
2017-09-16T00:48:59.591Z,12.50
2017-09-16T00:51:27.739Z,12.50
2017-09-16T00:53:55.880Z,12.50
2017-09-16T00:56:24.824Z,12.50
2017-09-16T00:58:52.972Z,12.40
2017-09-16T01:01:21.162Z,12.40
2017-09-16T01:03:49.315Z,12.40
2017-09-16T01:06:17.483Z,12.40
2017-09-16T01:08:45.652Z,12.40
2017-09-16T01:11:13.807Z,12.40
2017-09-16T01:13:42.888Z,12.40
2017-09-16T01:16:11.808Z,12.40
2017-09-16T01:18:40.316Z,12.40
2017-09-16T01:21:08.516Z,12.30
2017-09-16T01:23:36.692Z,12.30
2017-09-16T01:26:04.881Z,12.30
2017-09-16T01:28:33.815Z,12.30
2017-09-16T01:31:01.968Z,12.30
2017-09-16T01:33:30.151Z,12.20
2017-09-16T01:35:58.285Z,12.20
2017-09-16T01:38:27.217Z,12.10
2017-09-16T01:40:55.353Z,12.10
2017-09-16T01:43:24.257Z,12.00
2017-09-16T01:45:52.878Z,12.00
2017-09-16T01:48:21.013Z,12.00
2017-09-16T01:50:49.548Z,11.90
2017-09-16T01:53:17.674Z,11.90
2017-09-16T01:55:45.844Z,11.80
2017-09-16T01:58:13.976Z,11.80
2017-09-16T02:00:42.895Z,11.70
2017-09-16T02:03:11.060Z,11.70
2017-09-16T02:05:39.215Z,11.60
2017-09-16T02:08:08.137Z,11.60
2017-09-16T02:10:36.281Z,11.60
2017-09-16T02:13:05.212Z,11.60
2017-09-16T02:15:33.381Z,11.60
2017-09-16T02:18:01.526Z,11.60
2017-09-16T02:20:29.718Z,11.60
2017-09-16T02:22:57.910Z,11.60
2017-09-16T02:25:26.033Z,11.60
2017-09-16T02:27:54.975Z,11.60
2017-09-16T02:30:23.128Z,11.60
2017-09-16T02:32:51.293Z,11.60
2017-09-16T02:35:19.422Z,11.60
2017-09-16T02:37:47.559Z,11.60
2017-09-16T02:40:15.714Z,11.60
2017-09-16T02:42:43.858Z,11.60
2017-09-16T02:45:12.005Z,11.60
2017-09-16T02:47:40.178Z,11.60
2017-09-16T02:50:09.085Z,11.50
2017-09-16T02:52:38.031Z,11.60
2017-09-16T02:55:06.176Z,11.50
2017-09-16T02:57:34.320Z,11.60
2017-09-16T03:00:03.253Z,11.60
2017-09-16T03:02:31.404Z,11.50
2017-09-16T03:04:59.680Z,11.60
2017-09-16T03:07:27.828Z,11.60
2017-09-16T03:09:55.975Z,11.60
2017-09-16T03:12:24.134Z,11.60
2017-09-16T03:14:53.193Z,11.60
2017-09-16T03:17:21.473Z,11.60
2017-09-16T03:19:49.610Z,11.60
2017-09-16T03:22:17.755Z,11.60
2017-09-16T03:24:45.928Z,11.60
2017-09-16T03:27:14.062Z,11.60
2017-09-16T03:29:42.228Z,11.60
2017-09-16T03:32:10.380Z,11.60
2017-09-16T03:34:38.558Z,11.60
2017-09-16T03:37:06.705Z,11.60
2017-09-16T03:39:35.618Z,11.60
2017-09-16T03:42:03.791Z,11.60
2017-09-16T03:44:31.951Z,11.60
2017-09-16T03:47:00.210Z,11.60
2017-09-16T03:49:29.116Z,11.60
2017-09-16T03:51:57.267Z,11.50
2017-09-16T03:54:26.295Z,11.50
2017-09-16T03:56:54.436Z,11.50
2017-09-16T03:59:23.341Z,11.60
2017-09-16T04:02:09.341Z,11.50
2017-09-16T04:04:37.487Z,11.60
2017-09-16T04:07:06.429Z,11.60
2017-09-16T04:09:35.352Z,11.60
2017-09-16T04:12:04.399Z,11.50
2017-09-16T04:14:32.544Z,11.60
2017-09-16T04:17:00.691Z,11.60
2017-09-16T04:19:28.852Z,11.60
2017-09-16T04:21:56.983Z,11.50
2017-09-16T04:24:25.248Z,11.60
2017-09-16T04:26:53.394Z,11.50
2017-09-16T04:29:22.299Z,11.50
2017-09-16T04:31:50.476Z,11.50
2017-09-16T04:34:18.627Z,11.50
2017-09-16T04:36:47.556Z,11.50
2017-09-16T04:39:15.775Z,11.50
2017-09-16T04:41:43.919Z,11.50
2017-09-16T04:44:12.091Z,11.50
2017-09-16T04:46:40.263Z,11.50
2017-09-16T04:49:08.425Z,11.50
2017-09-16T04:51:36.567Z,11.50
2017-09-16T04:54:04.751Z,11.50
2017-09-16T04:56:32.886Z,11.50
2017-09-16T04:59:01.795Z,11.40
2017-09-16T05:01:29.945Z,11.50
2017-09-16T05:03:58.854Z,11.40
2017-09-16T05:06:27.027Z,11.40
2017-09-16T05:08:55.168Z,11.40
2017-09-16T05:11:23.322Z,11.40
2017-09-16T05:13:51.776Z,11.40
2017-09-16T05:16:19.946Z,11.40
2017-09-16T05:18:48.077Z,11.50
2017-09-16T05:21:17.060Z,11.50
2017-09-16T05:23:45.999Z,11.40
2017-09-16T05:26:14.129Z,11.40
2017-09-16T05:28:43.153Z,11.40
2017-09-16T05:31:11.290Z,11.40
2017-09-16T05:33:40.182Z,11.40
2017-09-16T05:36:08.444Z,11.40
2017-09-16T05:38:36.581Z,11.40
2017-09-16T05:41:04.718Z,11.40
2017-09-16T05:43:32.986Z,11.40
2017-09-16T05:46:01.127Z,11.40
2017-09-16T05:48:29.257Z,11.40
2017-09-16T05:50:57.485Z,11.40
2017-09-16T05:53:27.291Z,11.40
2017-09-16T05:55:56.206Z,11.40
2017-09-16T05:58:24.384Z,11.40
2017-09-16T06:00:52.559Z,11.50
2017-09-16T06:03:20.726Z,11.50
2017-09-16T06:05:48.879Z,11.50
2017-09-16T06:08:17.150Z,11.50
2017-09-16T06:10:45.317Z,11.50
2017-09-16T06:13:14.223Z,11.50
2017-09-16T06:15:42.506Z,11.50
2017-09-16T06:18:10.647Z,11.50
2017-09-16T06:20:38.782Z,11.60
2017-09-16T06:23:06.949Z,11.60
2017-09-16T06:25:35.088Z,11.60
2017-09-16T06:28:03.269Z,11.60
2017-09-16T06:30:31.400Z,11.60
2017-09-16T06:32:59.525Z,11.60
2017-09-16T06:35:27.673Z,11.70
2017-09-16T06:37:55.810Z,11.70
2017-09-16T06:40:23.956Z,11.70
2017-09-16T06:42:52.223Z,11.70
2017-09-16T06:45:20.371Z,11.70
2017-09-16T06:47:48.520Z,11.60
2017-09-16T06:50:17.458Z,11.70
2017-09-16T06:52:45.603Z,11.70
2017-09-16T06:55:13.811Z,11.70
2017-09-16T06:57:41.952Z,11.70
2017-09-16T07:00:10.114Z,11.70
2017-09-16T07:02:38.409Z,11.70
2017-09-16T07:05:06.551Z,11.70
2017-09-16T07:07:35.468Z,11.70
2017-09-16T07:10:03.641Z,11.70
2017-09-16T07:12:31.780Z,11.70
2017-09-16T07:15:00.815Z,11.70
2017-09-16T07:17:29.059Z,11.70
2017-09-16T07:19:57.556Z,11.70
2017-09-16T07:22:25.708Z,11.70
2017-09-16T07:24:54.791Z,11.70
2017-09-16T07:27:23.726Z,11.70
2017-09-16T07:29:51.884Z,11.60
2017-09-16T07:32:20.027Z,11.70
2017-09-16T07:34:48.951Z,11.70
2017-09-16T07:37:17.089Z,11.70
2017-09-16T07:39:46.022Z,11.70
2017-09-16T07:42:14.170Z,11.70
2017-09-16T07:44:42.332Z,11.80
2017-09-16T07:47:10.478Z,11.80
2017-09-16T07:49:39.413Z,11.80
2017-09-16T07:52:07.568Z,11.70
2017-09-16T07:54:35.731Z,11.70
2017-09-16T07:57:03.881Z,11.70
2017-09-16T07:59:32.824Z,11.70
2017-09-16T08:02:00.967Z,11.70
2017-09-16T08:04:29.423Z,11.70
2017-09-16T08:06:58.337Z,11.70
2017-09-16T08:09:26.519Z,11.70
2017-09-16T08:11:54.686Z,11.70
2017-09-16T08:14:22.836Z,11.70
2017-09-16T08:16:51.774Z,11.80
2017-09-16T08:19:19.906Z,11.80
2017-09-16T08:21:48.805Z,11.90
2017-09-16T08:24:17.022Z,11.80
2017-09-16T08:26:45.178Z,11.80
2017-09-16T08:29:13.573Z,11.90
2017-09-16T08:31:41.695Z,11.90
2017-09-16T08:34:09.836Z,11.90
2017-09-16T08:36:38.011Z,12.00
2017-09-16T08:39:06.142Z,12.00
2017-09-16T08:41:34.298Z,12.00
2017-09-16T08:44:02.450Z,12.10
2017-09-16T08:46:30.596Z,12.10
2017-09-16T08:48:59.538Z,12.10
2017-09-16T08:51:27.688Z,12.10
2017-09-16T08:53:55.866Z,12.10
2017-09-16T08:56:24.011Z,12.10
2017-09-16T08:58:52.948Z,12.10
2017-09-16T09:01:21.103Z,12.00
2017-09-16T09:03:49.339Z,12.00
2017-09-16T09:06:18.404Z,12.00
2017-09-16T09:08:46.542Z,11.90
2017-09-16T09:11:14.684Z,12.00
2017-09-16T09:13:43.607Z,11.90
2017-09-16T09:16:11.750Z,11.90
2017-09-16T09:18:40.677Z,11.80
2017-09-16T09:21:08.825Z,11.80
2017-09-16T09:23:36.969Z,11.80
2017-09-16T09:26:06.003Z,11.90
2017-09-16T09:28:34.157Z,11.80
2017-09-16T09:31:02.293Z,11.80
2017-09-16T09:33:30.472Z,11.90
2017-09-16T09:35:58.601Z,11.80
2017-09-16T09:38:26.883Z,11.80
2017-09-16T09:40:55.037Z,11.80
2017-09-16T09:43:23.175Z,11.90
2017-09-16T09:45:52.115Z,11.90
2017-09-16T09:48:20.258Z,11.90
2017-09-16T09:50:48.427Z,11.90
2017-09-16T09:53:16.562Z,11.90
2017-09-16T09:55:44.739Z,11.90
2017-09-16T09:58:13.651Z,11.90
2017-09-16T10:00:41.795Z,11.90
2017-09-16T10:03:09.995Z,11.90
2017-09-16T10:05:38.147Z,11.90
2017-09-16T10:08:07.039Z,12.00
2017-09-16T10:10:35.987Z,12.10
2017-09-16T10:13:04.127Z,12.00
2017-09-16T10:15:32.282Z,12.10
2017-09-16T10:18:01.218Z,12.30
2017-09-16T10:20:29.347Z,12.30
2017-09-16T10:22:57.610Z,12.40
2017-09-16T10:25:26.505Z,12.50
2017-09-16T10:27:55.400Z,12.60
2017-09-16T10:30:23.572Z,12.60
2017-09-16T10:32:51.728Z,12.70
2017-09-16T10:35:20.636Z,12.90
2017-09-16T10:37:48.802Z,12.90
2017-09-16T10:40:16.951Z,13.00
2017-09-16T10:42:45.220Z,13.20
2017-09-16T10:45:13.371Z,13.30
2017-09-16T10:47:41.522Z,13.40
2017-09-16T10:50:09.686Z,13.50
2017-09-16T10:52:37.819Z,13.60
2017-09-16T10:55:06.739Z,13.70
2017-09-16T10:57:34.915Z,13.70
2017-09-16T11:00:03.049Z,13.80
2017-09-16T11:02:32.078Z,13.80
2017-09-16T11:05:00.362Z,13.70
2017-09-16T11:07:28.495Z,13.70
2017-09-16T11:09:57.423Z,13.50
2017-09-16T11:12:25.546Z,13.50
2017-09-16T11:14:53.789Z,13.40
2017-09-16T11:17:21.925Z,13.30
2017-09-16T11:19:50.201Z,13.20
2017-09-16T11:22:18.370Z,13.10
2017-09-16T11:24:46.511Z,13.10
2017-09-16T11:27:15.448Z,12.90
2017-09-16T11:29:43.578Z,12.90
2017-09-16T11:32:12.483Z,12.90
2017-09-16T11:34:40.650Z,12.80
2017-09-16T11:37:09.565Z,12.90
2017-09-16T11:39:37.703Z,12.80
2017-09-16T11:42:05.860Z,12.90
2017-09-16T11:44:33.995Z,13.10
2017-09-16T11:47:02.253Z,13.20
2017-09-16T11:49:30.537Z,13.30
2017-09-16T11:51:58.661Z,13.40
2017-09-16T11:54:27.566Z,13.60
2017-09-16T11:56:56.547Z,13.60
2017-09-16T11:59:25.455Z,13.70
2017-09-16T12:01:53.595Z,13.70
2017-09-16T12:04:21.746Z,13.70
2017-09-16T12:06:49.886Z,13.80
2017-09-16T12:09:18.059Z,13.90
2017-09-16T12:11:46.199Z,13.90
2017-09-16T12:14:14.381Z,14.00
2017-09-16T12:16:42.577Z,14.10
2017-09-16T12:19:10.707Z,14.10
2017-09-16T12:21:39.636Z,14.30
2017-09-16T12:24:07.780Z,14.20
2017-09-16T12:26:35.959Z,14.30
2017-09-16T12:29:04.118Z,14.40
2017-09-16T12:31:33.156Z,14.50
2017-09-16T12:34:01.299Z,14.40
2017-09-16T12:36:29.431Z,14.50
2017-09-16T12:38:57.611Z,14.50
2017-09-16T12:41:25.758Z,14.50
2017-09-16T12:43:54.021Z,14.50
2017-09-16T12:46:22.159Z,14.50
2017-09-16T12:48:50.351Z,14.50
2017-09-16T12:51:18.514Z,14.50
2017-09-16T12:53:46.679Z,14.50
2017-09-16T12:56:14.845Z,14.40
2017-09-16T12:58:42.987Z,14.40
2017-09-16T13:01:11.146Z,14.40
2017-09-16T13:03:39.401Z,14.40
2017-09-16T13:06:07.548Z,14.40
2017-09-16T13:08:35.678Z,14.40
2017-09-16T13:11:04.643Z,14.40
2017-09-16T13:13:32.794Z,14.40
2017-09-16T13:16:00.952Z,14.50
2017-09-16T13:18:29.232Z,14.50
2017-09-16T13:20:57.375Z,14.60
2017-09-16T13:23:26.273Z,14.60
2017-09-16T13:25:54.436Z,14.60
2017-09-16T13:28:23.354Z,14.50
2017-09-16T13:30:51.515Z,14.50
2017-09-16T13:33:19.670Z,14.40
2017-09-16T13:35:48.589Z,14.20
2017-09-16T13:38:16.766Z,14.30
2017-09-16T13:40:44.909Z,14.20
2017-09-16T13:43:13.068Z,14.10
2017-09-16T13:45:42.009Z,14.00
2017-09-16T13:48:10.859Z,13.90
2017-09-16T13:50:38.991Z,14.00
2017-09-16T13:53:07.148Z,14.00
2017-09-16T13:55:35.307Z,13.90
2017-09-16T13:58:03.461Z,14.00
2017-09-16T14:00:31.668Z,14.00
2017-09-16T14:02:59.838Z,14.00
2017-09-16T14:05:28.022Z,14.00
2017-09-16T14:07:56.358Z,13.90
2017-09-16T14:10:24.508Z,13.90
2017-09-16T14:12:53.227Z,13.90
2017-09-16T14:15:21.365Z,13.90
2017-09-16T14:17:49.511Z,13.90
2017-09-16T14:20:18.452Z,13.90
2017-09-16T14:22:46.595Z,13.90
2017-09-16T14:25:14.768Z,13.80
2017-09-16T14:27:42.913Z,13.80
2017-09-16T14:30:11.052Z,13.80
2017-09-16T14:32:39.214Z,13.70
2017-09-16T14:35:07.388Z,13.70
2017-09-16T14:37:35.532Z,13.60
2017-09-16T14:40:03.700Z,13.60
2017-09-16T14:42:31.835Z,13.50
2017-09-16T14:44:59.983Z,13.40
2017-09-16T14:47:28.133Z,13.40
2017-09-16T14:49:56.276Z,13.40
2017-09-16T14:52:25.200Z,13.30
2017-09-16T14:54:54.458Z,13.30
2017-09-16T14:57:23.511Z,13.30
2017-09-16T14:59:52.092Z,13.30
2017-09-16T15:02:20.251Z,13.30
2017-09-16T15:04:48.450Z,13.30
2017-09-16T15:07:16.601Z,13.20
2017-09-16T15:09:45.539Z,13.30
2017-09-16T15:12:14.461Z,13.30
2017-09-16T15:14:42.636Z,13.20
2017-09-16T15:17:10.770Z,13.30
2017-09-16T15:19:39.679Z,13.30
2017-09-16T15:22:07.835Z,13.30
2017-09-16T15:24:37.061Z,13.40
2017-09-16T15:27:05.234Z,13.40
2017-09-16T15:29:33.471Z,13.40
2017-09-16T15:32:02.391Z,13.50
2017-09-16T15:34:30.564Z,13.40
2017-09-16T15:36:58.707Z,13.50
2017-09-16T15:39:27.605Z,13.50
2017-09-16T15:41:56.557Z,13.50
2017-09-16T15:44:24.691Z,13.50
2017-09-16T15:46:52.861Z,13.50
2017-09-16T15:49:21.147Z,13.50
2017-09-16T15:51:49.299Z,13.50
2017-09-16T15:54:17.446Z,13.50
2017-09-16T15:56:46.391Z,13.40
2017-09-16T15:59:14.567Z,13.40
2017-09-16T16:01:42.743Z,13.50
2017-09-16T16:04:10.882Z,13.50
2017-09-16T16:06:39.066Z,13.50
2017-09-16T16:09:07.235Z,13.50
2017-09-16T16:11:35.400Z,13.50
2017-09-16T16:14:03.556Z,13.60
2017-09-16T16:16:31.702Z,13.50
2017-09-16T16:18:59.976Z,13.50
2017-09-16T16:21:28.112Z,13.40
2017-09-16T16:23:56.262Z,13.40
2017-09-16T16:26:24.434Z,13.30
2017-09-16T16:28:52.595Z,13.30
2017-09-16T16:31:20.744Z,13.20
2017-09-16T16:33:49.682Z,13.10
2017-09-16T16:36:17.819Z,13.10
2017-09-16T16:38:46.710Z,13.10
2017-09-16T16:41:14.885Z,13.00
2017-09-16T16:43:43.915Z,13.10
2017-09-16T16:46:12.100Z,13.00
2017-09-16T16:48:40.234Z,13.00
2017-09-16T16:51:08.416Z,13.00
2017-09-16T16:53:36.564Z,13.00
2017-09-16T16:56:04.828Z,13.00
2017-09-16T16:58:33.800Z,12.90
2017-09-16T17:01:01.931Z,12.90
2017-09-16T17:03:30.107Z,12.90
2017-09-16T17:05:59.026Z,12.80
2017-09-16T17:08:27.205Z,12.80
2017-09-16T17:10:56.164Z,12.70
2017-09-16T17:13:24.305Z,12.70
2017-09-16T17:15:52.453Z,12.70
2017-09-16T17:18:21.478Z,12.70
2017-09-16T17:20:49.618Z,12.60
2017-09-16T17:23:18.529Z,12.60
2017-09-16T17:25:46.821Z,12.60
2017-09-16T17:28:14.958Z,12.60
2017-09-16T17:30:43.899Z,12.50
2017-09-16T17:33:12.060Z,12.50
2017-09-16T17:35:40.190Z,12.50
2017-09-16T17:38:09.261Z,12.40
2017-09-16T17:40:37.395Z,12.40
2017-09-16T17:43:05.522Z,12.30
2017-09-16T17:45:33.700Z,12.30
2017-09-16T17:48:01.842Z,12.20
2017-09-16T17:50:30.027Z,12.20
2017-09-16T17:52:58.947Z,12.20
2017-09-16T17:55:27.081Z,12.20
2017-09-16T17:57:55.254Z,12.20
2017-09-16T18:00:23.394Z,12.20
2017-09-16T18:02:52.318Z,12.10
2017-09-16T18:05:20.458Z,12.10
2017-09-16T18:07:48.679Z,12.00
2017-09-16T18:10:16.821Z,12.00
2017-09-16T18:12:44.952Z,11.90
2017-09-16T18:15:13.133Z,11.90
2017-09-16T18:17:41.283Z,11.80
2017-09-16T18:20:09.554Z,11.80
2017-09-16T18:22:38.479Z,11.70
2017-09-16T18:25:07.520Z,11.80
2017-09-16T18:27:36.442Z,11.60
2017-09-16T18:30:04.587Z,11.60
2017-09-16T18:32:32.763Z,11.60
2017-09-16T18:35:00.925Z,11.50
2017-09-16T18:37:29.152Z,11.40
2017-09-16T18:39:59.046Z,11.30
2017-09-16T18:42:27.205Z,11.30
2017-09-16T18:44:55.402Z,11.20
2017-09-16T18:47:23.611Z,11.20
2017-09-16T18:49:51.810Z,11.10
2017-09-16T18:52:20.270Z,11.10
2017-09-16T18:54:49.175Z,11.00
2017-09-16T18:57:17.503Z,10.90
2017-09-16T18:59:45.665Z,10.90
2017-09-16T19:02:13.826Z,10.80
2017-09-16T19:04:41.994Z,10.80
2017-09-16T19:07:10.985Z,10.70
2017-09-16T19:09:39.239Z,10.70
2017-09-16T19:12:07.514Z,10.60
2017-09-16T19:14:35.676Z,10.60
2017-09-16T19:17:03.936Z,10.60
2017-09-16T19:19:32.894Z,10.50
2017-09-16T19:22:01.371Z,10.50
2017-09-16T19:24:30.683Z,10.50
2017-09-16T19:27:00.011Z,10.40
2017-09-16T19:29:28.260Z,10.30
2017-09-16T19:31:56.466Z,10.30
2017-09-16T19:34:24.958Z,10.20
2017-09-16T19:36:53.968Z,10.20
2017-09-16T19:39:22.176Z,10.20
2017-09-16T19:41:50.450Z,10.20
2017-09-16T19:44:19.623Z,10.10
2017-09-16T19:46:47.814Z,10.10
2017-09-16T19:49:16.172Z,10.10
2017-09-16T19:51:44.343Z,10.10
2017-09-16T19:54:12.484Z,10.00
2017-09-16T19:56:40.655Z,10.00
2017-09-16T19:59:08.806Z,10.00
2017-09-16T20:01:37.895Z,10.00
2017-09-16T20:04:06.988Z,10.00
2017-09-16T20:06:35.149Z,9.90
2017-09-16T20:09:03.804Z,9.90
2017-09-16T20:11:32.026Z,10.00
2017-09-16T20:14:00.987Z,10.00
2017-09-16T20:16:29.138Z,9.90
2017-09-16T20:18:57.297Z,10.00
2017-09-16T20:21:25.480Z,10.00
2017-09-16T20:23:53.640Z,10.00
2017-09-16T20:26:21.783Z,10.00
2017-09-16T20:28:49.981Z,9.90
2017-09-16T20:31:18.154Z,9.90
2017-09-16T20:33:46.322Z,9.90
2017-09-16T20:36:14.491Z,9.90
2017-09-16T20:38:42.617Z,9.90
2017-09-16T20:41:11.556Z,9.80
2017-09-16T20:43:39.715Z,9.80
2017-09-16T20:46:07.875Z,9.80
2017-09-16T20:48:36.007Z,9.80
2017-09-16T20:51:04.171Z,9.80
2017-09-16T20:53:32.450Z,9.80
2017-09-16T20:56:00.596Z,9.80
2017-09-16T20:58:28.723Z,9.80
2017-09-16T21:00:57.645Z,9.80
2017-09-16T21:03:26.385Z,9.80
2017-09-16T21:05:54.559Z,9.80
2017-09-16T21:08:23.484Z,9.80
2017-09-16T21:10:51.771Z,9.70
2017-09-16T21:13:19.914Z,9.70
2017-09-16T21:15:48.082Z,9.70
2017-09-16T21:18:17.026Z,9.70
2017-09-16T21:20:45.164Z,9.70
2017-09-16T21:23:13.326Z,9.70
2017-09-16T21:25:41.475Z,9.70
2017-09-16T21:28:10.409Z,9.70
2017-09-16T21:30:38.550Z,9.70
2017-09-16T21:33:07.456Z,9.70
2017-09-16T21:35:35.727Z,9.70
2017-09-16T21:38:03.895Z,9.70
2017-09-16T21:40:32.038Z,9.70
2017-09-16T21:43:00.206Z,9.70
2017-09-16T21:45:28.355Z,9.60
2017-09-16T21:47:56.520Z,9.60
2017-09-16T21:50:24.665Z,9.60
2017-09-16T21:52:52.812Z,9.60
2017-09-16T21:55:21.743Z,9.60
2017-09-16T21:57:49.877Z,9.50
2017-09-16T22:00:18.923Z,9.60
2017-09-16T22:02:47.078Z,9.50
2017-09-16T22:05:15.214Z,9.50
2017-09-16T22:07:44.246Z,9.50
2017-09-16T22:10:12.374Z,9.50
2017-09-16T22:12:41.273Z,9.50
2017-09-16T22:15:09.435Z,9.50
2017-09-16T22:17:38.326Z,9.50
2017-09-16T22:20:06.503Z,9.50
2017-09-16T22:22:34.629Z,9.50
2017-09-16T22:25:02.816Z,9.50
2017-09-16T22:27:30.954Z,9.50
2017-09-16T22:29:59.081Z,9.50
2017-09-16T22:32:28.020Z,9.40
2017-09-16T22:34:56.154Z,9.40
2017-09-16T22:37:24.296Z,9.40
2017-09-16T22:39:52.569Z,9.40
2017-09-16T22:42:20.716Z,9.40
2017-09-16T22:44:48.859Z,9.40
2017-09-16T22:47:17.027Z,9.40
2017-09-16T22:49:45.159Z,9.40
2017-09-16T22:52:14.097Z,9.30
2017-09-16T22:54:42.251Z,9.30
2017-09-16T22:57:10.422Z,9.30
2017-09-16T22:59:38.555Z,9.30
2017-09-16T23:02:06.702Z,9.30
2017-09-16T23:04:34.872Z,9.30
2017-09-16T23:07:03.014Z,9.30
2017-09-16T23:09:31.174Z,9.30
2017-09-16T23:12:00.083Z,9.20
2017-09-16T23:14:28.232Z,9.20
2017-09-16T23:16:57.143Z,9.30
2017-09-16T23:19:25.309Z,9.20
2017-09-16T23:21:53.456Z,9.30
2017-09-16T23:24:22.380Z,9.30
2017-09-16T23:26:50.513Z,9.30
2017-09-16T23:29:19.409Z,9.30
2017-09-16T23:31:48.340Z,9.30
2017-09-16T23:34:16.475Z,9.30
2017-09-16T23:36:44.640Z,9.30
2017-09-16T23:39:12.766Z,9.30
2017-09-16T23:41:40.925Z,9.30
2017-09-16T23:44:09.057Z,9.30
2017-09-16T23:46:37.305Z,9.30
2017-09-16T23:49:05.446Z,9.30
2017-09-16T23:51:33.583Z,9.30
2017-09-16T23:54:01.738Z,9.30
2017-09-16T23:56:30.647Z,9.40
2017-09-16T23:58:58.827Z,9.30
